createdAt,value
2023-05-01T00:00:37.826Z,14.80
2023-05-01T00:03:15.176Z,15.30
2023-05-01T00:05:43.965Z,12.40
2023-05-01T00:08:12.744Z,16.90
2023-05-01T00:10:40.749Z,12.40
2023-05-01T00:13:10.141Z,14.50
2023-05-01T00:15:42.506Z,10.60
2023-05-01T00:18:10.619Z,15.70
2023-05-01T00:20:39.255Z,15.00
2023-05-01T00:23:08.725Z,18.50
2023-05-01T00:25:36.925Z,13.80
2023-05-01T00:28:05.825Z,11.70
2023-05-01T00:30:34.611Z,11.50
2023-05-01T00:33:02.967Z,10.30
2023-05-01T00:35:31.306Z,12.50
2023-05-01T00:37:59.652Z,10.20
2023-05-01T00:40:28.245Z,12.80
2023-05-01T00:42:56.812Z,13.90
2023-05-01T00:45:25.913Z,13.10
2023-05-01T00:47:54.080Z,13.40
2023-05-01T00:50:22.564Z,13.30
2023-05-01T00:52:50.640Z,13.70
2023-05-01T00:55:19.234Z,14.80
2023-05-01T00:57:47.481Z,13.10
2023-05-01T01:00:17.102Z,12.00
2023-05-01T01:02:46.855Z,14.20
2023-05-01T01:05:16.736Z,13.20
2023-05-01T01:07:59.555Z,14.60
2023-05-01T01:10:35.540Z,14.90
2023-05-01T01:13:31.965Z,12.00
2023-05-01T01:16:24.715Z,17.50
2023-05-01T01:18:58.418Z,16.70
2023-05-01T01:21:35.680Z,17.60
2023-05-01T01:24:32.354Z,19.10
2023-05-01T01:27:19.544Z,15.80
2023-05-01T01:30:11.612Z,17.00
2023-05-01T01:33:06.963Z,15.70
2023-05-01T01:35:39.247Z,13.80
2023-05-01T01:38:16.851Z,13.50
2023-05-01T01:41:23.041Z,13.20
2023-05-01T01:44:03.186Z,14.30
2023-05-01T01:46:37.304Z,18.20
2023-05-01T01:49:12.196Z,17.20
2023-05-01T01:51:42.445Z,13.50
2023-05-01T01:54:13.725Z,17.40
2023-05-01T01:56:43.817Z,17.00
2023-05-01T01:59:12.295Z,15.70
2023-05-01T02:01:42.316Z,12.30
2023-05-01T02:04:13.625Z,13.40
2023-05-01T02:06:43.747Z,14.90
2023-05-01T02:09:15.933Z,25.50
2023-05-01T02:11:45.041Z,19.00
2023-05-01T02:14:15.082Z,17.60
2023-05-01T02:16:45.026Z,15.70
2023-05-01T02:19:15.505Z,17.00
2023-05-01T02:21:45.754Z,14.10
2023-05-01T02:24:14.513Z,12.30
2023-05-01T02:26:48.120Z,13.60
2023-05-01T02:29:16.292Z,11.40
2023-05-01T02:31:44.498Z,11.20
2023-05-01T02:34:12.847Z,13.40
2023-05-01T02:36:40.924Z,16.20
2023-05-01T02:39:09.502Z,18.80
2023-05-01T02:41:40.491Z,11.60
2023-05-01T02:44:11.494Z,14.00
2023-05-01T02:46:43.796Z,21.20
2023-05-01T02:49:12.920Z,17.50
2023-05-01T02:51:42.415Z,17.10
2023-05-01T02:54:11.241Z,16.20
2023-05-01T02:56:39.886Z,14.70
2023-05-01T02:59:08.015Z,15.00
2023-05-01T03:01:36.210Z,13.40
2023-05-01T03:04:04.809Z,13.10
2023-05-01T03:06:32.881Z,14.60
2023-05-01T03:09:01.327Z,11.30
2023-05-01T03:11:29.260Z,13.30
2023-05-01T03:13:57.668Z,19.50
2023-05-01T03:16:25.776Z,25.20
2023-05-01T03:18:53.898Z,23.40
2023-05-01T03:21:21.978Z,21.20
2023-05-01T03:23:49.985Z,14.00
2023-05-01T03:26:18.983Z,12.50
2023-05-01T03:28:47.222Z,11.60
2023-05-01T03:31:15.301Z,11.00
2023-05-01T03:33:43.468Z,13.10
2023-05-01T03:36:11.650Z,12.60
2023-05-01T03:38:39.913Z,12.00
2023-05-01T03:41:10.876Z,15.10
2023-05-01T03:43:57.460Z,16.10
2023-05-01T03:46:34.670Z,14.10
2023-05-01T03:49:04.006Z,12.90
2023-05-01T03:51:34.881Z,12.80
2023-05-01T03:54:03.482Z,16.40
2023-05-01T03:56:37.070Z,13.50
2023-05-01T03:59:05.759Z,13.90
2023-05-01T04:01:33.943Z,16.00
2023-05-01T04:04:02.565Z,17.30
2023-05-01T04:06:31.166Z,17.70
2023-05-01T04:08:59.380Z,19.70
2023-05-01T04:11:27.658Z,16.20
2023-05-01T04:13:55.836Z,16.60
2023-05-01T04:16:24.653Z,18.60
2023-05-01T04:18:53.716Z,17.90
2023-05-01T04:21:21.987Z,18.80
2023-05-01T04:23:51.830Z,17.90
2023-05-01T04:26:19.974Z,13.40
2023-05-01T04:28:48.269Z,13.20
2023-05-01T04:31:18.285Z,13.80
2023-05-01T04:33:46.311Z,12.80
2023-05-01T04:36:14.312Z,14.80
2023-05-01T04:38:43.408Z,12.40
2023-05-01T04:41:11.579Z,13.30
2023-05-01T04:43:39.658Z,12.10
2023-05-01T04:46:08.161Z,11.60
2023-05-01T04:48:36.723Z,18.80
2023-05-01T04:51:04.893Z,18.00
2023-05-01T04:53:34.925Z,18.80
2023-05-01T04:56:03.395Z,17.20
2023-05-01T04:58:32.121Z,13.40
2023-05-01T05:01:04.151Z,16.90
2023-05-01T05:03:32.367Z,16.30
2023-05-01T05:06:00.911Z,17.80
2023-05-01T05:08:29.896Z,14.30
2023-05-01T05:11:07.739Z,13.40
2023-05-01T05:13:54.401Z,15.00
2023-05-01T05:16:22.621Z,15.90
2023-05-01T05:18:51.187Z,15.20
2023-05-01T05:21:19.541Z,19.20
2023-05-01T05:23:51.196Z,14.40
2023-05-01T05:26:19.375Z,17.20
2023-05-01T05:28:48.569Z,13.20
2023-05-01T05:31:17.561Z,13.80
2023-05-01T05:33:46.003Z,17.30
2023-05-01T05:36:14.940Z,11.70
2023-05-01T05:38:44.338Z,11.20
2023-05-01T05:41:15.366Z,12.00
2023-05-01T05:43:43.755Z,14.60
2023-05-01T05:46:12.167Z,13.10
2023-05-01T05:48:40.510Z,9.70
2023-05-01T05:51:08.992Z,11.80
2023-05-01T05:53:36.968Z,9.90
2023-05-01T05:56:05.552Z,14.80
2023-05-01T05:58:34.156Z,11.60
2023-05-01T06:01:02.374Z,11.60
2023-05-01T06:03:30.818Z,10.80
2023-05-01T06:06:02.458Z,11.10
2023-05-01T06:08:30.721Z,9.00
2023-05-01T06:10:59.084Z,11.60
2023-05-01T06:13:28.511Z,15.00
2023-05-01T06:15:57.470Z,11.50
2023-05-01T06:18:26.296Z,12.20
2023-05-01T06:20:54.667Z,10.20
2023-05-01T06:23:23.152Z,14.60
2023-05-01T06:26:14.062Z,9.90
2023-05-01T06:28:42.247Z,11.60
2023-05-01T06:31:10.750Z,12.20
2023-05-01T06:33:42.470Z,10.50
2023-05-01T06:36:20.891Z,10.70
2023-05-01T06:38:49.493Z,10.80
2023-05-01T06:41:17.744Z,10.80
2023-05-01T06:43:46.633Z,13.90
2023-05-01T06:46:14.844Z,11.70
2023-05-01T06:48:42.882Z,9.80
2023-05-01T06:51:16.101Z,11.90
2023-05-01T06:53:44.148Z,12.50
2023-05-01T06:56:12.235Z,12.90
2023-05-01T06:58:40.493Z,10.90
2023-05-01T07:01:09.824Z,12.60
2023-05-01T07:03:38.037Z,14.20
2023-05-01T07:06:06.263Z,6.70
2023-05-01T07:08:34.519Z,6.40
2023-05-01T07:11:03.002Z,7.40
2023-05-01T07:13:31.478Z,6.90
2023-05-01T07:15:59.475Z,8.20
2023-05-01T07:18:27.476Z,8.50
2023-05-01T07:20:55.811Z,6.30
2023-05-01T07:23:25.616Z,8.80
2023-05-01T07:25:53.687Z,8.70
2023-05-01T07:28:23.091Z,6.60
2023-05-01T07:30:51.566Z,7.70
2023-05-01T07:33:19.718Z,7.50
2023-05-01T07:35:48.024Z,8.70
2023-05-01T07:38:18.036Z,10.50
2023-05-01T07:40:46.006Z,10.40
2023-05-01T07:43:14.089Z,10.10
2023-05-01T07:45:43.088Z,8.40
2023-05-01T07:48:11.505Z,7.60
2023-05-01T07:50:39.620Z,9.60
2023-05-01T07:53:07.779Z,12.10
2023-05-01T07:55:35.865Z,10.20
2023-05-01T07:58:03.943Z,10.70
2023-05-01T08:00:32.458Z,9.10
2023-05-01T08:03:00.627Z,7.90
2023-05-01T08:05:28.789Z,7.00
2023-05-01T08:07:58.894Z,10.10
2023-05-01T08:10:28.604Z,8.30
2023-05-01T08:12:56.791Z,7.40
2023-05-01T08:15:25.060Z,10.00
2023-05-01T08:17:53.403Z,7.70
2023-05-01T08:20:21.806Z,7.40
2023-05-01T08:22:49.770Z,9.60
2023-05-01T08:25:17.849Z,12.40
2023-05-01T08:27:46.249Z,8.30
2023-05-01T08:30:14.238Z,7.10
2023-05-01T08:32:42.298Z,7.60
2023-05-01T08:35:10.471Z,8.10
2023-05-01T08:37:38.619Z,10.30
2023-05-01T08:40:10.523Z,7.50
2023-05-01T08:42:39.217Z,8.30
2023-05-01T08:45:11.801Z,7.70
2023-05-01T08:47:40.632Z,8.70
2023-05-01T08:50:14.214Z,5.80
2023-05-01T08:52:43.646Z,9.10
2023-05-01T08:55:16.151Z,9.80
2023-05-01T08:57:48.808Z,9.50
2023-05-01T09:00:21.512Z,6.60
2023-05-01T09:02:51.528Z,5.90
2023-05-01T09:05:21.211Z,5.30
2023-05-01T09:07:49.685Z,7.50
2023-05-01T09:10:19.390Z,6.40
2023-05-01T09:12:56.489Z,7.20
2023-05-01T09:15:27.207Z,8.90
2023-05-01T09:17:56.501Z,6.60
2023-05-01T09:20:24.691Z,8.50
2023-05-01T09:22:53.166Z,7.80
2023-05-01T09:25:21.233Z,7.10
2023-05-01T09:27:49.700Z,6.10
2023-05-01T09:30:35.718Z,7.50
2023-05-01T09:33:11.752Z,5.50
2023-05-01T09:38:19.668Z,5.10
2023-05-01T09:40:48.273Z,4.40
2023-05-01T09:43:27.281Z,4.70
2023-05-01T09:46:11.726Z,5.40
2023-05-01T09:48:40.340Z,6.00
2023-05-01T09:51:33.133Z,5.20
2023-05-01T09:54:05.119Z,7.30
2023-05-01T09:56:34.458Z,5.70
2023-05-01T09:59:22.843Z,5.20
2023-05-01T10:01:51.536Z,6.80
2023-05-01T10:04:39.478Z,4.50
2023-05-01T10:07:14.685Z,5.20
2023-05-01T10:09:42.952Z,5.90
2023-05-01T10:12:11.235Z,5.00
2023-05-01T10:14:56.810Z,7.60
2023-05-01T10:17:24.992Z,7.50
2023-05-01T10:19:53.178Z,5.10
2023-05-01T10:22:22.109Z,6.20
2023-05-01T10:24:50.969Z,6.00
2023-05-01T10:27:22.446Z,5.80
2023-05-01T10:29:53.567Z,6.70
2023-05-01T10:32:22.427Z,8.10
2023-05-01T10:35:15.499Z,7.30
2023-05-01T10:37:56.776Z,4.80
2023-05-01T10:40:40.364Z,3.70
2023-05-01T10:43:31.533Z,4.40
2023-05-01T10:46:09.406Z,4.80
2023-05-01T10:48:40.965Z,5.10
2023-05-01T10:51:26.570Z,5.70
2023-05-01T10:54:14.322Z,8.60
2023-05-01T10:56:43.703Z,4.50
2023-05-01T10:59:13.251Z,7.90
2023-05-01T11:01:45.352Z,9.50
2023-05-01T11:04:19.367Z,7.10
2023-05-01T11:07:05.714Z,5.70
2023-05-01T11:09:55.820Z,5.80
2023-05-01T11:12:42.512Z,7.40
2023-05-01T11:17:44.292Z,10.70
2023-05-01T11:20:34.022Z,11.90
2023-05-01T11:23:02.197Z,5.90
2023-05-01T11:25:31.931Z,6.00
2023-05-01T11:28:04.266Z,7.10
2023-05-01T11:30:40.143Z,7.10
2023-05-01T11:33:10.592Z,5.80
2023-05-01T11:35:39.554Z,6.90
2023-05-01T11:38:18.889Z,6.40
2023-05-01T11:40:55.533Z,5.10
2023-05-01T11:43:23.752Z,6.20
2023-05-01T11:46:02.683Z,5.00
2023-05-01T11:48:32.599Z,8.10
2023-05-01T11:51:00.828Z,7.00
2023-05-01T11:53:29.982Z,9.20
2023-05-01T11:55:59.608Z,5.80
2023-05-01T11:58:33.504Z,10.10
2023-05-01T12:01:02.063Z,5.10
2023-05-01T12:03:42.364Z,4.70
2023-05-01T12:06:13.409Z,6.70
2023-05-01T12:08:51.234Z,5.50
2023-05-01T12:11:21.456Z,6.10
2023-05-01T12:13:50.464Z,6.00
2023-05-01T12:16:19.011Z,8.00
2023-05-01T12:18:48.423Z,4.80
2023-05-01T12:21:17.983Z,6.70
2023-05-01T12:23:46.853Z,7.10
2023-05-01T12:26:25.981Z,6.60
2023-05-01T12:28:59.182Z,6.70
2023-05-01T12:31:29.172Z,5.80
2023-05-01T12:33:59.310Z,6.40
2023-05-01T12:36:29.211Z,10.50
2023-05-01T12:39:05.694Z,5.90
2023-05-01T12:41:35.094Z,4.80
2023-05-01T12:44:16.935Z,4.80
2023-05-01T12:46:47.470Z,5.40
2023-05-01T12:49:20.054Z,5.00
2023-05-01T12:51:53.128Z,5.70
2023-05-01T12:54:43.999Z,4.70
2023-05-01T12:57:15.030Z,4.80
2023-05-01T12:59:45.171Z,3.70
2023-05-01T13:02:17.491Z,5.50
2023-05-01T13:04:49.307Z,5.50
2023-05-01T13:07:19.376Z,5.80
2023-05-01T13:10:00.243Z,5.70
2023-05-01T13:12:28.960Z,5.10
2023-05-01T13:14:57.578Z,6.00
2023-05-01T13:17:25.969Z,4.50
2023-05-01T13:20:01.668Z,4.50
2023-05-01T13:25:04.919Z,4.70
2023-05-01T13:27:33.170Z,4.10
2023-05-01T13:30:02.520Z,6.10
2023-05-01T13:32:32.339Z,5.00
2023-05-01T13:35:01.890Z,5.70
2023-05-01T13:37:30.506Z,3.80
2023-05-01T13:39:58.875Z,7.50
2023-05-01T13:42:27.221Z,4.80
2023-05-01T13:44:57.681Z,6.30
2023-05-01T13:47:27.241Z,4.90
2023-05-01T13:49:55.891Z,7.00
2023-05-01T13:52:24.632Z,4.10
2023-05-01T13:54:55.971Z,5.40
2023-05-01T13:57:24.457Z,5.50
2023-05-01T13:59:52.530Z,8.00
2023-05-01T14:02:27.228Z,14.20
2023-05-01T14:04:57.061Z,7.80
2023-05-01T14:07:26.772Z,4.50
2023-05-01T14:09:57.795Z,7.30
2023-05-01T14:12:30.919Z,5.60
2023-05-01T14:15:03.466Z,4.30
2023-05-01T14:17:34.745Z,4.40
2023-05-01T14:20:04.995Z,5.90
2023-05-01T14:22:48.286Z,4.00
2023-05-01T14:25:26.342Z,3.40
2023-05-01T14:27:56.210Z,4.30
2023-05-01T14:30:40.251Z,3.60
2023-05-01T14:33:14.014Z,5.20
2023-05-01T14:35:50.582Z,5.50
2023-05-01T14:38:21.557Z,5.50
2023-05-01T14:40:49.854Z,5.70
2023-05-01T14:43:20.209Z,3.90
2023-05-01T14:45:50.055Z,4.90
2023-05-01T14:48:23.728Z,4.30
2023-05-01T14:50:55.080Z,3.30
2023-05-01T14:53:23.590Z,6.70
2023-05-01T14:55:52.519Z,5.50
2023-05-01T14:58:20.590Z,4.60
2023-05-01T15:00:48.864Z,6.80
2023-05-01T15:03:17.201Z,6.40
2023-05-01T15:05:46.331Z,4.10
2023-05-01T15:08:14.829Z,3.90
2023-05-01T15:10:44.237Z,5.10
2023-05-01T15:13:13.045Z,5.30
2023-05-01T15:15:41.704Z,4.20
2023-05-01T15:18:09.995Z,3.60
2023-05-01T15:20:38.351Z,6.60
2023-05-01T15:23:06.454Z,5.70
2023-05-01T15:25:34.710Z,4.00
2023-05-01T15:28:03.662Z,4.30
2023-05-01T15:30:32.184Z,6.30
2023-05-01T15:33:00.836Z,4.50
2023-05-01T15:35:29.133Z,3.30
2023-05-01T15:37:57.848Z,4.10
2023-05-01T15:40:25.910Z,5.20
2023-05-01T15:42:54.730Z,4.60
2023-05-01T15:45:22.908Z,4.20
2023-05-01T15:47:51.253Z,5.20
2023-05-01T15:50:19.990Z,6.50
2023-05-01T15:52:49.344Z,5.60
2023-05-01T15:55:18.543Z,4.30
2023-05-01T15:57:49.571Z,3.80
2023-05-01T16:00:18.797Z,4.00
2023-05-01T16:02:47.080Z,5.10
2023-05-01T16:05:21.287Z,3.40
2023-05-01T16:07:54.266Z,4.70
2023-05-01T16:10:23.647Z,4.30
2023-05-01T16:12:53.584Z,8.10
2023-05-01T16:15:22.965Z,6.20
2023-05-01T16:17:52.165Z,5.40
2023-05-01T16:20:21.261Z,4.80
2023-05-01T16:22:49.660Z,4.10
2023-05-01T16:25:18.442Z,6.10
2023-05-01T16:27:47.749Z,4.00
2023-05-01T16:30:16.001Z,4.40
2023-05-01T16:32:45.103Z,7.10
2023-05-01T16:35:27.226Z,10.00
2023-05-01T16:37:56.229Z,4.80
2023-05-01T16:40:24.368Z,7.20
2023-05-01T16:42:53.688Z,7.60
2023-05-01T16:45:22.265Z,7.50
2023-05-01T16:47:51.635Z,6.90
2023-05-01T16:50:22.595Z,5.80
2023-05-01T16:52:58.250Z,8.60
2023-05-01T16:55:26.691Z,6.40
2023-05-01T16:57:55.008Z,8.70
2023-05-01T17:00:23.583Z,6.50
2023-05-01T17:02:53.640Z,10.80
2023-05-01T17:05:21.812Z,11.20
2023-05-01T17:07:49.854Z,8.30
2023-05-01T17:10:18.235Z,13.20
2023-05-01T17:12:46.505Z,6.10
2023-05-01T17:15:14.748Z,9.50
2023-05-01T17:17:43.048Z,9.60
2023-05-01T17:20:12.075Z,9.90
2023-05-01T17:22:40.231Z,12.30
2023-05-01T17:25:08.918Z,11.00
2023-05-01T17:27:38.020Z,12.20
2023-05-01T17:30:07.003Z,9.50
2023-05-01T17:32:37.271Z,7.70
2023-05-01T17:35:06.736Z,9.90
2023-05-01T17:37:34.814Z,10.20
2023-05-01T17:40:05.020Z,8.30
2023-05-01T17:42:33.821Z,10.50
2023-05-01T17:45:01.999Z,10.40
2023-05-01T17:47:30.290Z,12.30
2023-05-01T17:50:00.361Z,9.50
2023-05-01T17:52:28.936Z,10.90
2023-05-01T17:54:57.883Z,10.20
2023-05-01T17:57:26.149Z,10.90
2023-05-01T17:59:54.652Z,10.00
2023-05-01T18:02:23.633Z,10.00
2023-05-01T18:04:52.304Z,14.20
2023-05-01T18:07:20.453Z,9.90
2023-05-01T18:09:48.750Z,15.00
2023-05-01T18:12:17.125Z,11.80
2023-05-01T18:14:46.342Z,10.60
2023-05-01T18:17:14.493Z,20.00
2023-05-01T18:19:43.013Z,9.60
2023-05-01T18:22:11.099Z,12.40
2023-05-01T18:24:39.372Z,8.10
2023-05-01T18:27:08.277Z,9.40
2023-05-01T18:29:36.850Z,16.50
2023-05-01T18:32:05.652Z,8.70
2023-05-01T18:34:34.222Z,10.10
2023-05-01T18:37:02.907Z,19.10
2023-05-01T18:39:31.076Z,13.40
2023-05-01T18:41:59.362Z,14.00
2023-05-01T18:44:27.327Z,15.10
2023-05-01T18:46:55.782Z,13.90
2023-05-01T18:49:25.148Z,20.80
2023-05-01T18:51:53.336Z,19.40
2023-05-01T18:54:23.145Z,19.40
2023-05-01T18:56:51.615Z,21.20
2023-05-01T18:59:19.810Z,24.40
2023-05-01T19:01:50.271Z,26.30
2023-05-01T19:04:18.936Z,26.00
2023-05-01T19:06:47.085Z,29.00
2023-05-01T19:09:15.575Z,24.50
2023-05-01T19:11:43.563Z,23.80
2023-05-01T19:14:11.805Z,28.70
2023-05-01T19:16:40.758Z,23.10
2023-05-01T19:19:09.621Z,23.70
2023-05-01T19:21:37.768Z,23.10
2023-05-01T19:24:06.032Z,27.00
2023-05-01T19:26:34.045Z,27.00
2023-05-01T19:29:02.113Z,25.10
2023-05-01T19:31:30.259Z,25.60
2023-05-01T19:33:58.524Z,27.70
2023-05-01T19:36:26.929Z,27.30
2023-05-01T19:38:54.983Z,24.40
2023-05-01T19:41:23.154Z,20.00
2023-05-01T19:43:51.536Z,24.00
2023-05-01T19:46:19.704Z,18.00
2023-05-01T19:48:47.980Z,24.30
2023-05-01T19:51:16.163Z,22.90
2023-05-01T19:53:44.446Z,23.10
2023-05-01T19:56:12.712Z,18.40
2023-05-01T19:58:40.912Z,20.70
2023-05-01T20:01:11.933Z,22.50
2023-05-01T20:03:40.368Z,24.80
2023-05-01T20:06:09.248Z,23.70
2023-05-01T20:08:37.693Z,24.90
2023-05-01T20:11:05.954Z,26.60
2023-05-01T20:13:34.380Z,25.30
2023-05-01T20:16:03.188Z,22.30
2023-05-01T20:18:32.230Z,21.80
2023-05-01T20:21:00.394Z,21.60
2023-05-01T20:23:29.285Z,22.80
2023-05-01T20:25:57.773Z,19.80
2023-05-01T20:28:26.043Z,24.10
2023-05-01T20:30:54.374Z,24.90
2023-05-01T20:33:23.221Z,19.90
2023-05-01T20:35:51.489Z,19.50
2023-05-01T20:38:19.670Z,19.20
2023-05-01T20:40:47.745Z,24.70
2023-05-01T20:43:16.026Z,26.20
2023-05-01T20:45:44.074Z,26.20
2023-05-01T20:48:12.795Z,20.20
2023-05-01T20:50:43.939Z,21.40
2023-05-01T20:53:12.097Z,24.80
2023-05-01T20:55:40.366Z,25.60
2023-05-01T20:58:08.444Z,22.00
2023-05-01T21:00:36.599Z,28.90
2023-05-01T21:03:05.127Z,21.60
2023-05-01T21:05:33.268Z,20.10
2023-05-01T21:08:03.292Z,28.40
2023-05-01T21:10:31.779Z,21.60
2023-05-01T21:13:00.184Z,21.30
2023-05-01T21:15:28.414Z,33.90
2023-05-01T21:17:56.799Z,26.40
2023-05-01T21:20:31.690Z,21.20
2023-05-01T21:23:01.349Z,22.90
2023-05-01T21:25:31.857Z,18.20
2023-05-01T21:28:02.361Z,20.60
2023-05-01T21:30:36.224Z,18.60
2023-05-01T21:33:06.412Z,22.10
2023-05-01T21:35:34.495Z,21.60
2023-05-01T21:38:04.840Z,20.50
2023-05-01T21:40:37.399Z,24.70
2023-05-01T21:43:06.733Z,24.30
2023-05-01T21:45:40.224Z,18.70
2023-05-01T21:48:09.423Z,18.50
2023-05-01T21:50:38.455Z,20.50
2023-05-01T21:53:07.294Z,15.80
2023-05-01T21:55:35.765Z,15.70
2023-05-01T21:58:04.140Z,16.90
2023-05-01T22:00:33.186Z,19.70
2023-05-01T22:03:07.124Z,18.80
2023-05-01T22:05:35.315Z,23.60
2023-05-01T22:08:03.514Z,22.80
2023-05-01T22:10:32.081Z,26.90
2023-05-01T22:13:00.154Z,22.10
2023-05-01T22:15:28.199Z,21.10
2023-05-01T22:17:56.954Z,22.50
2023-05-01T22:20:25.294Z,25.70
2023-05-01T22:22:53.456Z,29.30
2023-05-01T22:25:21.531Z,29.40
2023-05-01T22:27:49.718Z,25.30
2023-05-01T22:30:17.783Z,21.60
2023-05-01T22:32:45.893Z,18.50
2023-05-01T22:35:13.920Z,19.30
2023-05-01T22:37:41.996Z,21.50
2023-05-01T22:40:10.617Z,28.30
2023-05-01T22:42:38.755Z,24.90
2023-05-01T22:45:07.444Z,27.00
2023-05-01T22:47:35.555Z,23.80
2023-05-01T22:50:03.796Z,26.00
2023-05-01T22:52:32.173Z,34.60
2023-05-01T22:55:00.239Z,40.00
2023-05-01T22:57:28.759Z,38.00
2023-05-01T22:59:57.005Z,45.30
2023-05-01T23:02:25.209Z,36.40
2023-05-01T23:04:53.452Z,31.00
2023-05-01T23:07:22.339Z,32.70
2023-05-01T23:09:50.406Z,25.10
2023-05-01T23:12:23.250Z,21.30
2023-05-01T23:14:51.816Z,26.70
2023-05-01T23:17:20.144Z,21.00
2023-05-01T23:19:48.227Z,18.20
2023-05-01T23:22:18.068Z,18.10
2023-05-01T23:24:48.486Z,16.10
2023-05-01T23:27:19.318Z,17.10
2023-05-01T23:29:57.055Z,16.20
2023-05-01T23:32:30.739Z,13.30
2023-05-01T23:35:14.055Z,13.10
2023-05-01T23:37:42.098Z,16.30
2023-05-01T23:40:10.799Z,15.00
2023-05-01T23:42:39.781Z,20.20
2023-05-01T23:45:09.097Z,14.30
2023-05-01T23:47:38.857Z,12.80
2023-05-01T23:50:08.127Z,17.70
2023-05-01T23:52:36.605Z,16.10
2023-05-01T23:55:05.163Z,15.30
2023-05-01T23:57:33.242Z,16.00
